AUA664 EPWA-LOWW
Flight info
| Callsign | AUA664 |
|---|---|
| Flight time | 0h 58m |
| Altitude | 34000 |
| Route | EVINA N744 TUSIN DCT MIKOV MIKOV8W |
| Aircraft | A320/M-SDE3FGHIRWY/LB1 |
Departure
| Time | 2026-05-05 14:27 |
|---|---|
| Airport | Warsaw Chopin Airport (EPWA) |
Arrival
| Time | 2026-05-05 15:25 |
|---|---|
| Airport | Vienna International Airport (LOWW) |
| Time | Latitude | Longitude | Altitude | Speed | Heading |
|---|---|---|---|---|---|
| 2026-05-05 14:01 | 52.16957 | 20.97187 | 336 ft | 0 kts | 68° |
| 2026-05-05 14:01 | 52.16958 | 20.97194 | 337 ft | 0 kts | 68° |
| 2026-05-05 14:20 | 52.16951 | 20.97166 | 334 ft | 4 kts | 68° |
| 2026-05-05 14:20 | 52.16941 | 20.97125 | 335 ft | 4 kts | 68° |
| 2026-05-05 14:20 | 52.16933 | 20.97091 | 335 ft | 4 kts | 70° |
| 2026-05-05 14:20 | 52.16930 | 20.97053 | 336 ft | 4 kts | 117° |
| 2026-05-05 14:21 | 52.16947 | 20.97024 | 333 ft | 4 kts | 151° |
| 2026-05-05 14:21 | 52.16952 | 20.97020 | 335 ft | 1 kts | 152° |
| 2026-05-05 14:23 | 52.16934 | 20.97036 | 335 ft | 5 kts | 152° |
| 2026-05-05 14:23 | 52.16901 | 20.97064 | 339 ft | 9 kts | 152° |
| 2026-05-05 14:23 | 52.16834 | 20.97123 | 336 ft | 11 kts | 152° |
| 2026-05-05 14:24 | 52.16766 | 20.97182 | 337 ft | 11 kts | 152° |
| 2026-05-05 14:24 | 52.16700 | 20.97239 | 336 ft | 11 kts | 152° |
| 2026-05-05 14:24 | 52.16623 | 20.97306 | 336 ft | 17 kts | 152° |
| 2026-05-05 14:24 | 52.16544 | 20.97477 | 336 ft | 21 kts | 116° |
| 2026-05-05 14:25 | 52.16487 | 20.97678 | 335 ft | 17 kts | 114° |
| 2026-05-05 14:25 | 52.16412 | 20.97791 | 336 ft | 16 kts | 200° |
| 2026-05-05 14:25 | 52.16314 | 20.97706 | 334 ft | 16 kts | 240° |
| 2026-05-05 14:25 | 52.16328 | 20.97593 | 338 ft | 0 kts | 294° |
| 2026-05-05 14:26 | 52.16344 | 20.97535 | 335 ft | 28 kts | 294° |
| 2026-05-05 14:27 | 52.16542 | 20.96831 | 337 ft | 104 kts | 295° |
| 2026-05-05 14:27 | 52.16920 | 20.95475 | 360 ft | 158 kts | 290° |
| 2026-05-05 14:27 | 52.17406 | 20.93744 | 801 ft | 175 kts | 292° |
| 2026-05-05 14:27 | 52.17941 | 20.91875 | 1350 ft | 191 kts | 291° |
| 2026-05-05 14:28 | 52.18325 | 20.89774 | 1937 ft | 202 kts | 272° |
| 2026-05-05 14:28 | 52.18232 | 20.87386 | 2463 ft | 223 kts | 253° |
| 2026-05-05 14:28 | 52.17707 | 20.84883 | 2952 ft | 245 kts | 248° |
| 2026-05-05 14:28 | 52.17197 | 20.82139 | 3680 ft | 258 kts | 253° |
| 2026-05-05 14:29 | 52.16775 | 20.79269 | 4686 ft | 261 kts | 255° |
| 2026-05-05 14:29 | 52.16381 | 20.76369 | 5647 ft | 264 kts | 255° |
| 2026-05-05 14:29 | 52.15949 | 20.73452 | 6585 ft | 265 kts | 248° |
| 2026-05-05 14:29 | 52.15138 | 20.70843 | 7494 ft | 264 kts | 233° |
| 2026-05-05 14:30 | 52.13860 | 20.68689 | 8453 ft | 264 kts | 218° |
| 2026-05-05 14:30 | 52.12407 | 20.66856 | 9431 ft | 265 kts | 218° |
| 2026-05-05 14:30 | 52.10942 | 20.65015 | 10273 ft | 270 kts | 219° |
| 2026-05-05 14:30 | 52.09392 | 20.63061 | 10590 ft | 293 kts | 219° |
| 2026-05-05 14:31 | 52.07743 | 20.60978 | 11155 ft | 304 kts | 219° |
| 2026-05-05 14:31 | 52.06059 | 20.58852 | 11932 ft | 309 kts | 219° |
| 2026-05-05 14:31 | 52.04355 | 20.56700 | 12746 ft | 312 kts | 219° |
| 2026-05-05 14:31 | 52.02632 | 20.54527 | 13548 ft | 315 kts | 220° |
| 2026-05-05 14:32 | 52.00894 | 20.52339 | 14235 ft | 318 kts | 219° |
| 2026-05-05 14:32 | 51.99131 | 20.50120 | 14888 ft | 323 kts | 219° |
| 2026-05-05 14:32 | 51.97345 | 20.47875 | 15522 ft | 327 kts | 219° |
| 2026-05-05 14:32 | 51.95430 | 20.45823 | 16147 ft | 334 kts | 209° |
| 2026-05-05 14:33 | 51.93241 | 20.44455 | 16758 ft | 342 kts | 197° |
| 2026-05-05 14:33 | 51.90858 | 20.43859 | 17363 ft | 350 kts | 188° |
| 2026-05-05 14:33 | 51.88413 | 20.43497 | 17991 ft | 355 kts | 188° |
| 2026-05-05 14:33 | 51.85945 | 20.43127 | 18540 ft | 359 kts | 188° |
| 2026-05-05 14:34 | 51.83440 | 20.42750 | 19093 ft | 362 kts | 188° |
| 2026-05-05 14:34 | 51.80920 | 20.42370 | 19649 ft | 366 kts | 188° |
| 2026-05-05 14:34 | 51.78375 | 20.41981 | 20208 ft | 369 kts | 188° |
| 2026-05-05 14:34 | 51.75809 | 20.41586 | 20755 ft | 372 kts | 188° |
| 2026-05-05 14:35 | 51.73224 | 20.41191 | 21284 ft | 375 kts | 188° |
| 2026-05-05 14:35 | 51.70610 | 20.40796 | 21810 ft | 378 kts | 188° |
| 2026-05-05 14:35 | 51.67983 | 20.40400 | 22326 ft | 381 kts | 188° |
| 2026-05-05 14:35 | 51.65321 | 20.40000 | 22838 ft | 385 kts | 188° |
| 2026-05-05 14:36 | 51.62647 | 20.39597 | 23349 ft | 388 kts | 188° |
| 2026-05-05 14:36 | 51.59952 | 20.39193 | 23782 ft | 390 kts | 188° |
| 2026-05-05 14:36 | 51.57237 | 20.38783 | 24209 ft | 393 kts | 188° |
| 2026-05-05 14:36 | 51.54508 | 20.38367 | 24646 ft | 395 kts | 188° |
| 2026-05-05 14:37 | 51.51767 | 20.37947 | 25067 ft | 397 kts | 188° |
| 2026-05-05 14:37 | 51.49044 | 20.37535 | 25484 ft | 399 kts | 188° |
| 2026-05-05 14:37 | 51.46396 | 20.37136 | 25889 ft | 401 kts | 188° |
| 2026-05-05 14:37 | 51.43653 | 20.36722 | 26255 ft | 404 kts | 188° |
| 2026-05-05 14:38 | 51.40879 | 20.36007 | 26640 ft | 404 kts | 197° |
| 2026-05-05 14:38 | 51.38228 | 20.34543 | 27037 ft | 403 kts | 206° |
| 2026-05-05 14:38 | 51.35782 | 20.32357 | 27436 ft | 403 kts | 216° |
| 2026-05-05 14:38 | 51.33536 | 20.29666 | 27832 ft | 405 kts | 218° |
| 2026-05-05 14:39 | 51.31288 | 20.26940 | 28224 ft | 407 kts | 218° |
| 2026-05-05 14:39 | 51.29019 | 20.24203 | 28611 ft | 409 kts | 218° |
| 2026-05-05 14:39 | 51.26742 | 20.21465 | 29005 ft | 411 kts | 218° |
| 2026-05-05 14:39 | 51.24453 | 20.18720 | 29359 ft | 413 kts | 218° |
| 2026-05-05 14:40 | 51.22145 | 20.15956 | 29697 ft | 416 kts | 218° |
| 2026-05-05 14:40 | 51.19825 | 20.13181 | 30016 ft | 418 kts | 218° |
| 2026-05-05 14:40 | 51.17493 | 20.10389 | 30315 ft | 420 kts | 218° |
| 2026-05-05 14:40 | 51.15149 | 20.07584 | 30608 ft | 422 kts | 218° |
| 2026-05-05 14:41 | 51.12803 | 20.04775 | 30913 ft | 423 kts | 218° |
| 2026-05-05 14:41 | 51.10438 | 20.01950 | 31197 ft | 425 kts | 218° |
| 2026-05-05 14:41 | 51.08071 | 19.99125 | 31529 ft | 425 kts | 218° |
| 2026-05-05 14:41 | 51.05708 | 19.96313 | 31945 ft | 424 kts | 218° |
| 2026-05-05 14:42 | 51.03347 | 19.93510 | 32326 ft | 423 kts | 218° |
| 2026-05-05 14:42 | 51.00985 | 19.90718 | 32720 ft | 422 kts | 218° |
| 2026-05-05 14:42 | 50.98629 | 19.87938 | 33117 ft | 421 kts | 219° |
| 2026-05-05 14:42 | 50.96452 | 19.84869 | 33500 ft | 419 kts | 226° |
| 2026-05-05 14:43 | 50.94411 | 19.81653 | 33760 ft | 419 kts | 226° |
| 2026-05-05 14:43 | 50.92368 | 19.78425 | 33806 ft | 409 kts | 226° |
| 2026-05-05 14:43 | 50.88382 | 19.72124 | 33799 ft | 403 kts | 226° |
| 2026-05-05 14:44 | 50.84411 | 19.65874 | 33789 ft | 402 kts | 226° |
| 2026-05-05 14:44 | 50.80426 | 19.59630 | 33798 ft | 403 kts | 226° |
| 2026-05-05 14:45 | 50.76438 | 19.53396 | 33810 ft | 404 kts | 226° |
| 2026-05-05 14:45 | 50.72433 | 19.47153 | 33804 ft | 404 kts | 226° |
| 2026-05-05 14:46 | 50.68432 | 19.40918 | 33805 ft | 404 kts | 226° |
| 2026-05-05 14:46 | 50.64455 | 19.34742 | 33791 ft | 404 kts | 226° |
| 2026-05-05 14:47 | 50.60444 | 19.28538 | 33792 ft | 404 kts | 226° |
| 2026-05-05 14:47 | 50.56427 | 19.22334 | 33798 ft | 405 kts | 226° |
| 2026-05-05 14:48 | 50.52404 | 19.16133 | 33794 ft | 405 kts | 226° |
| 2026-05-05 14:48 | 50.48379 | 19.09943 | 33794 ft | 405 kts | 226° |
| 2026-05-05 14:49 | 50.44372 | 19.03804 | 33790 ft | 405 kts | 225° |
| 2026-05-05 14:49 | 50.40335 | 18.97639 | 33791 ft | 405 kts | 225° |
| 2026-05-05 14:50 | 50.36952 | 18.92476 | 33792 ft | 405 kts | 225° |
| 2026-05-05 14:50 | 50.32910 | 18.86323 | 33796 ft | 405 kts | 225° |
| 2026-05-05 14:51 | 50.28872 | 18.80186 | 33794 ft | 405 kts | 225° |
| 2026-05-05 14:51 | 50.24853 | 18.74100 | 33793 ft | 405 kts | 225° |
| 2026-05-05 14:52 | 50.20800 | 18.67990 | 33794 ft | 405 kts | 225° |
| 2026-05-05 14:52 | 50.16744 | 18.61877 | 33797 ft | 405 kts | 225° |
| 2026-05-05 14:53 | 50.12681 | 18.55765 | 33796 ft | 406 kts | 225° |
| 2026-05-05 14:53 | 50.08614 | 18.49670 | 33801 ft | 406 kts | 225° |
| 2026-05-05 14:54 | 50.04537 | 18.43578 | 33793 ft | 406 kts | 225° |
| 2026-05-05 14:54 | 50.00461 | 18.37486 | 33798 ft | 407 kts | 225° |
| 2026-05-05 14:55 | 49.96381 | 18.31406 | 33801 ft | 406 kts | 225° |
| 2026-05-05 14:55 | 49.92295 | 18.25344 | 33799 ft | 406 kts | 225° |
| 2026-05-05 14:56 | 49.88204 | 18.19280 | 33813 ft | 406 kts | 225° |
| 2026-05-05 14:56 | 49.84131 | 18.13260 | 33446 ft | 402 kts | 225° |
| 2026-05-05 14:57 | 49.82119 | 18.10293 | 33173 ft | 399 kts | 225° |
| 2026-05-05 14:57 | 49.80120 | 18.07345 | 32887 ft | 395 kts | 224° |
| 2026-05-05 14:57 | 49.78128 | 18.04415 | 32632 ft | 394 kts | 224° |
| 2026-05-05 14:57 | 49.76133 | 18.01492 | 32372 ft | 394 kts | 224° |
| 2026-05-05 14:58 | 49.74177 | 17.98626 | 32106 ft | 391 kts | 224° |
| 2026-05-05 14:58 | 49.72210 | 17.95747 | 31846 ft | 389 kts | 224° |
| 2026-05-05 14:58 | 49.70247 | 17.92875 | 31587 ft | 388 kts | 224° |
| 2026-05-05 14:58 | 49.68283 | 17.90003 | 31331 ft | 387 kts | 224° |
| 2026-05-05 14:59 | 49.66346 | 17.87169 | 30968 ft | 381 kts | 224° |
| 2026-05-05 14:59 | 49.64429 | 17.84367 | 30519 ft | 378 kts | 224° |
| 2026-05-05 14:59 | 49.62533 | 17.81600 | 30079 ft | 374 kts | 224° |
| 2026-05-05 14:59 | 49.60647 | 17.78849 | 29592 ft | 371 kts | 224° |
| 2026-05-05 15:00 | 49.58785 | 17.76138 | 29170 ft | 365 kts | 224° |
| 2026-05-05 15:00 | 49.57565 | 17.74366 | 28896 ft | 362 kts | 224° |
| 2026-05-05 15:00 | 49.55132 | 17.70839 | 28356 ft | 355 kts | 224° |
| 2026-05-05 15:00 | 49.53343 | 17.68250 | 27966 ft | 351 kts | 224° |
| 2026-05-05 15:01 | 49.51576 | 17.65696 | 27571 ft | 346 kts | 224° |
| 2026-05-05 15:01 | 49.49831 | 17.63173 | 27185 ft | 342 kts | 224° |
| 2026-05-05 15:01 | 49.48105 | 17.60676 | 26792 ft | 339 kts | 225° |
| 2026-05-05 15:01 | 49.46391 | 17.58201 | 26402 ft | 337 kts | 224° |
| 2026-05-05 15:02 | 49.44681 | 17.55731 | 26008 ft | 336 kts | 224° |
| 2026-05-05 15:02 | 49.42986 | 17.53287 | 25620 ft | 333 kts | 225° |
| 2026-05-05 15:02 | 49.41300 | 17.50856 | 25207 ft | 331 kts | 225° |
| 2026-05-05 15:02 | 49.39623 | 17.48443 | 24804 ft | 330 kts | 224° |
| 2026-05-05 15:03 | 49.37953 | 17.46044 | 24386 ft | 329 kts | 225° |
| 2026-05-05 15:03 | 49.36281 | 17.43646 | 23965 ft | 328 kts | 225° |
| 2026-05-05 15:03 | 49.34620 | 17.41265 | 23543 ft | 327 kts | 226° |
| 2026-05-05 15:03 | 49.32963 | 17.38889 | 23086 ft | 326 kts | 225° |
| 2026-05-05 15:04 | 49.31314 | 17.36532 | 22650 ft | 323 kts | 224° |
| 2026-05-05 15:04 | 49.29677 | 17.34196 | 22247 ft | 320 kts | 225° |
| 2026-05-05 15:04 | 49.28073 | 17.31907 | 21837 ft | 318 kts | 224° |
| 2026-05-05 15:04 | 49.26438 | 17.29577 | 21434 ft | 316 kts | 224° |
| 2026-05-05 15:05 | 49.23259 | 17.25052 | 20637 ft | 312 kts | 223° |
| 2026-05-05 15:05 | 49.21672 | 17.22794 | 20269 ft | 311 kts | 224° |
| 2026-05-05 15:05 | 49.20092 | 17.20551 | 19902 ft | 309 kts | 222° |
| 2026-05-05 15:06 | 49.18455 | 17.18480 | 19824 ft | 302 kts | 220° |
| 2026-05-05 15:06 | 49.16827 | 17.16520 | 19760 ft | 296 kts | 219° |
| 2026-05-05 15:06 | 49.15194 | 17.14594 | 19690 ft | 298 kts | 219° |
| 2026-05-05 15:06 | 49.13557 | 17.12672 | 19615 ft | 299 kts | 219° |
| 2026-05-05 15:07 | 49.11907 | 17.10735 | 19557 ft | 299 kts | 219° |
| 2026-05-05 15:07 | 49.10264 | 17.08800 | 19492 ft | 297 kts | 220° |
| 2026-05-05 15:07 | 49.08628 | 17.06867 | 19429 ft | 296 kts | 220° |
| 2026-05-05 15:07 | 49.07008 | 17.04956 | 19330 ft | 297 kts | 219° |
| 2026-05-05 15:08 | 49.05304 | 17.02942 | 18956 ft | 315 kts | 219° |
| 2026-05-05 15:08 | 49.03562 | 17.00879 | 18601 ft | 319 kts | 219° |
| 2026-05-05 15:08 | 49.01805 | 16.98802 | 18250 ft | 319 kts | 219° |
| 2026-05-05 15:08 | 49.00053 | 16.96735 | 17874 ft | 318 kts | 219° |
| 2026-05-05 15:09 | 48.98309 | 16.94682 | 17459 ft | 315 kts | 219° |
| 2026-05-05 15:09 | 48.96578 | 16.92646 | 17060 ft | 313 kts | 219° |
| 2026-05-05 15:09 | 48.94859 | 16.90624 | 16636 ft | 313 kts | 218° |
| 2026-05-05 15:09 | 48.93717 | 16.89280 | 16345 ft | 313 kts | 218° |
| 2026-05-05 15:10 | 48.92868 | 16.88311 | 15812 ft | 319 kts | 215° |
| 2026-05-05 15:11 | 48.91016 | 16.86348 | 15226 ft | 325 kts | 217° |
| 2026-05-05 15:11 | 48.89206 | 16.84241 | 14797 ft | 333 kts | 219° |
| 2026-05-05 15:11 | 48.87369 | 16.82022 | 14358 ft | 340 kts | 219° |
| 2026-05-05 15:11 | 48.85522 | 16.79779 | 13931 ft | 341 kts | 219° |
| 2026-05-05 15:12 | 48.83670 | 16.77549 | 13501 ft | 340 kts | 218° |
| 2026-05-05 15:12 | 48.81817 | 16.75344 | 13020 ft | 337 kts | 218° |
| 2026-05-05 15:12 | 48.79982 | 16.73181 | 12541 ft | 332 kts | 218° |
| 2026-05-05 15:12 | 48.79389 | 16.72487 | 12406 ft | 332 kts | 218° |
| 2026-05-05 15:13 | 48.78696 | 16.71677 | 12247 ft | 337 kts | 217° |
| 2026-05-05 15:13 | 48.76828 | 16.69503 | 11782 ft | 337 kts | 217° |
| 2026-05-05 15:13 | 48.74982 | 16.67356 | 11331 ft | 332 kts | 218° |
| 2026-05-05 15:13 | 48.73188 | 16.65272 | 10892 ft | 327 kts | 218° |
| 2026-05-05 15:14 | 48.71399 | 16.63196 | 10459 ft | 322 kts | 218° |
| 2026-05-05 15:14 | 48.69635 | 16.61148 | 10017 ft | 317 kts | 217° |
| 2026-05-05 15:14 | 48.67892 | 16.59128 | 9584 ft | 314 kts | 217° |
| 2026-05-05 15:14 | 48.66167 | 16.57129 | 9110 ft | 311 kts | 217° |
| 2026-05-05 15:15 | 48.64461 | 16.55150 | 8651 ft | 307 kts | 217° |
| 2026-05-05 15:15 | 48.62781 | 16.53202 | 8178 ft | 303 kts | 217° |
| 2026-05-05 15:15 | 48.61108 | 16.51272 | 7730 ft | 301 kts | 216° |
| 2026-05-05 15:15 | 48.59265 | 16.49844 | 7281 ft | 298 kts | 197° |
| 2026-05-05 15:16 | 48.57272 | 16.49082 | 6891 ft | 294 kts | 194° |
| 2026-05-05 15:16 | 48.55304 | 16.48357 | 6526 ft | 288 kts | 194° |
| 2026-05-05 15:16 | 48.53369 | 16.47650 | 6172 ft | 284 kts | 194° |
| 2026-05-05 15:16 | 48.51462 | 16.46952 | 5805 ft | 280 kts | 194° |
| 2026-05-05 15:17 | 48.49589 | 16.46266 | 5428 ft | 275 kts | 194° |
| 2026-05-05 15:17 | 48.47754 | 16.45593 | 5067 ft | 263 kts | 193° |
| 2026-05-05 15:17 | 48.46060 | 16.44976 | 4985 ft | 238 kts | 193° |
| 2026-05-05 15:17 | 48.44493 | 16.44484 | 4981 ft | 229 kts | 185° |
| 2026-05-05 15:18 | 48.42966 | 16.44625 | 4986 ft | 211 kts | 168° |
| 2026-05-05 15:18 | 48.41576 | 16.45209 | 4989 ft | 205 kts | 166° |
| 2026-05-05 15:18 | 48.40204 | 16.45798 | 5000 ft | 206 kts | 167° |
| 2026-05-05 15:18 | 48.38818 | 16.46390 | 4995 ft | 208 kts | 167° |
| 2026-05-05 15:19 | 48.37447 | 16.46978 | 4998 ft | 201 kts | 167° |
| 2026-05-05 15:19 | 48.36140 | 16.47537 | 5024 ft | 196 kts | 168° |
| 2026-05-05 15:19 | 48.34837 | 16.48094 | 4986 ft | 195 kts | 167° |
| 2026-05-05 15:19 | 48.33531 | 16.48651 | 4836 ft | 195 kts | 167° |
| 2026-05-05 15:20 | 48.32252 | 16.49198 | 4616 ft | 184 kts | 168° |
| 2026-05-05 15:20 | 48.31068 | 16.49705 | 4393 ft | 173 kts | 168° |
| 2026-05-05 15:20 | 48.29920 | 16.50194 | 4169 ft | 170 kts | 168° |
| 2026-05-05 15:20 | 48.28794 | 16.50673 | 3940 ft | 169 kts | 168° |
| 2026-05-05 15:21 | 48.27662 | 16.51155 | 3711 ft | 168 kts | 169° |
| 2026-05-05 15:21 | 48.26550 | 16.51628 | 3488 ft | 165 kts | 169° |
| 2026-05-05 15:21 | 48.25453 | 16.52096 | 3276 ft | 164 kts | 169° |
| 2026-05-05 15:21 | 48.24411 | 16.52539 | 3072 ft | 163 kts | 168° |
| 2026-05-05 15:22 | 48.23325 | 16.53001 | 2858 ft | 162 kts | 167° |
| 2026-05-05 15:22 | 48.22237 | 16.53463 | 2644 ft | 163 kts | 167° |
| 2026-05-05 15:22 | 48.21140 | 16.53929 | 2430 ft | 164 kts | 167° |
| 2026-05-05 15:22 | 48.20061 | 16.54388 | 2217 ft | 156 kts | 166° |
| 2026-05-05 15:23 | 48.19071 | 16.54810 | 2045 ft | 139 kts | 167° |
| 2026-05-05 15:23 | 48.18192 | 16.55183 | 1849 ft | 129 kts | 167° |
| 2026-05-05 15:23 | 48.17363 | 16.55535 | 1691 ft | 125 kts | 168° |
| 2026-05-05 15:23 | 48.16531 | 16.55886 | 1525 ft | 124 kts | 169° |
| 2026-05-05 15:24 | 48.15707 | 16.56236 | 1371 ft | 124 kts | 169° |
| 2026-05-05 15:24 | 48.14893 | 16.56578 | 1215 ft | 123 kts | 167° |
| 2026-05-05 15:24 | 48.14077 | 16.56916 | 1022 ft | 123 kts | 168° |
| 2026-05-05 15:24 | 48.13261 | 16.57282 | 892 ft | 122 kts | 168° |
| 2026-05-05 15:25 | 48.12436 | 16.57622 | 770 ft | 125 kts | 168° |
| 2026-05-05 15:25 | 48.11608 | 16.57976 | 627 ft | 122 kts | 168° |
| 2026-05-05 15:25 | 48.10919 | 16.58263 | 618 ft | 83 kts | 163° |
| 2026-05-05 15:25 | 48.10541 | 16.58421 | 615 ft | 34 kts | 165° |
| 2026-05-05 15:26 | 48.10338 | 16.58460 | 611 ft | 26 kts | 184° |
| 2026-05-05 15:26 | 48.10176 | 16.58415 | 608 ft | 19 kts | 192° |
| 2026-05-05 15:26 | 48.10096 | 16.58290 | 611 ft | 18 kts | 253° |
| 2026-05-05 15:26 | 48.10158 | 16.58169 | 611 ft | 16 kts | 345° |
| 2026-05-05 15:27 | 48.10262 | 16.58125 | 613 ft | 15 kts | 344° |
| 2026-05-05 15:27 | 48.10360 | 16.58083 | 614 ft | 14 kts | 344° |
| 2026-05-05 15:27 | 48.10451 | 16.58045 | 620 ft | 13 kts | 344° |
| 2026-05-05 15:27 | 48.10538 | 16.58009 | 620 ft | 13 kts | 345° |
| 2026-05-05 15:28 | 48.10626 | 16.57972 | 618 ft | 13 kts | 343° |
| 2026-05-05 15:28 | 48.10709 | 16.57937 | 620 ft | 13 kts | 345° |
| 2026-05-05 15:28 | 48.10808 | 16.57894 | 621 ft | 15 kts | 344° |
| 2026-05-05 15:28 | 48.10902 | 16.57854 | 612 ft | 14 kts | 344° |
| 2026-05-05 15:29 | 48.10994 | 16.57816 | 621 ft | 14 kts | 344° |
| 2026-05-05 15:29 | 48.11080 | 16.57780 | 617 ft | 12 kts | 344° |
| 2026-05-05 15:29 | 48.11166 | 16.57743 | 617 ft | 16 kts | 344° |
| 2026-05-05 15:29 | 48.11319 | 16.57678 | 618 ft | 24 kts | 345° |
| 2026-05-05 15:30 | 48.11475 | 16.57613 | 611 ft | 22 kts | 344° |
| 2026-05-05 15:30 | 48.11575 | 16.57471 | 625 ft | 19 kts | 307° |
| 2026-05-05 15:30 | 48.11690 | 16.57396 | 620 ft | 18 kts | 344° |
| 2026-05-05 15:30 | 48.11801 | 16.57342 | 618 ft | 16 kts | 330° |
| 2026-05-05 15:31 | 48.11856 | 16.57211 | 613 ft | 14 kts | 295° |
| 2026-05-05 15:31 | 48.11897 | 16.57086 | 620 ft | 13 kts | 296° |
| 2026-05-05 15:31 | 48.11934 | 16.56972 | 617 ft | 10 kts | 294° |
| 2026-05-05 15:31 | 48.11906 | 16.56909 | 618 ft | 9 kts | 206° |
| 2026-05-05 15:32 | 48.11864 | 16.56878 | 609 ft | 0 kts | 206° |
| 2026-05-05 15:32 | 48.11862 | 16.56876 | 609 ft | 0 kts | 206° |